Time;durP1;ratioP1;P1;durP2;ratioP2;P2;SDS_P1;SDS_P2;PMS_P1;PMS_P2;Temp;Humidity;BMP_temperature;BMP_pressure;BME280_temperature;BME280_humidity;BME280_pressure;Samples;Min_cycle;Max_cycle;Signal;HPM_P1;HPM_P2
2022/12/15 00:40:39;;;;;;;29.07;21.97;;;;;;;-4.82;100.00;95723.78;5040299;28;20536;-69
2022/12/15 00:43:10;;;;;;;28.83;22.20;;;;;;;-4.95;100.00;95730.84;5044069;28;20898;-69
2022/12/15 00:48:24;;;;;;;32.73;22.47;;;;;;;-4.97;100.00;95756.84;5041443;28;20559;-70
2022/12/15 00:50:52;;;;;;;29.93;23.63;;;;;;;-4.97;100.00;95749.06;5002381;28;20450;-68
2022/12/15 01:20:56;;;;;;;29.10;22.03;;;;;;;-4.84;100.00;95773.94;5000422;28;20448;-69
2022/12/15 01:23:26;;;;;;;29.93;20.43;;;;;;;-4.78;100.00;95775.22;5035822;28;20713;-68
2022/12/15 01:25:54;;;;;;;25.97;20.30;;;;;;;-4.86;100.00;95783.56;5021354;28;20457;-68
2022/12/15 01:28:22;;;;;;;30.77;21.60;;;;;;;-4.84;100.00;95789.44;5045113;28;20226;-69
2022/12/15 01:30:49;;;;;;;32.83;22.63;;;;;;;-4.86;100.00;95789.56;5035552;28;20203;-68
2022/12/15 01:33:17;;;;;;;34.33;24.00;;;;;;;-4.87;100.00;95795.69;5043364;28;20666;-69
2022/12/15 01:35:46;;;;;;;29.77;22.57;;;;;;;-4.89;100.00;95791.56;5000996;28;20600;-69
2022/12/15 01:38:13;;;;;;;29.37;22.00;;;;;;;-4.75;100.00;95800.81;5034924;28;20460;-68
2022/12/15 01:40:51;;;;;;;25.07;20.57;;;;;;;-4.70;100.00;95806.41;5020865;28;20445;-68
2022/12/15 01:43:21;;;;;;;24.77;20.50;;;;;;;-4.65;100.00;95812.03;5045282;28;20222;-68
2022/12/15 01:45:57;;;;;;;27.20;21.03;;;;;;;-4.65;100.00;95809.44;5035491;28;20212;-69
2022/12/15 01:48:34;;;;;;;29.33;21.90;;;;;;;-4.71;100.00;95810.78;5046597;28;20602;-69
2022/12/15 01:51:10;;;;;;;26.00;21.23;;;;;;;-4.73;100.00;95798.91;4997845;28;24979;-68
2022/12/15 01:53:40;;;;;;;23.90;20.13;;;;;;;-4.69;100.00;95795.97;5043366;28;20226;-68
2022/12/15 01:56:10;;;;;;;31.53;23.40;;;;;;;-4.64;100.00;95800.75;5015810;28;20425;-68
2022/12/15 01:58:40;;;;;;;28.47;21.77;;;;;;;-4.67;100.00;95795.81;5044865;28;20662;-69
2022/12/15 02:01:09;;;;;;;29.90;22.73;;;;;;;-4.74;100.00;95803.25;5037521;28;20210;-68
2022/12/15 02:03:38;;;;;;;47.73;32.43;;;;;;;-4.75;100.00;95836.97;5041234;28;20258;-69
2022/12/15 02:06:06;;;;;;;30.00;23.20;;;;;;;-4.68;100.00;95845.88;5036643;28;20744;-70
2022/12/15 02:08:34;;;;;;;28.70;20.50;;;;;;;-4.81;100.00;95833.94;4997616;28;20234;-68
2022/12/15 02:11:22;;;;;;;29.47;23.07;;;;;;;-4.78;100.00;95834.66;4994523;28;20465;-68
2022/12/15 02:13:56;;;;;;;26.83;21.63;;;;;;;-4.64;100.00;95829.19;5038157;28;20224;-68
2022/12/15 02:16:30;;;;;;;26.33;20.67;;;;;;;-4.59;100.00;95837.38;5020065;28;20990;-68
2022/12/15 02:19:03;;;;;;;27.80;21.93;;;;;;;-4.58;100.00;95839.03;5040968;28;20198;-68
2022/12/15 02:21:33;;;;;;;28.80;20.90;;;;;;;-4.53;100.00;95839.50;5017055;28;20863;-68
2022/12/15 02:24:30;;;;;;;27.97;20.97;;;;;;;-4.61;100.00;95847.03;5048648;28;20223;-68
2022/12/15 02:27:16;;;;;;;29.53;22.40;;;;;;;-4.54;100.00;95840.44;5043073;28;20454;-68
2022/12/15 02:30:19;;;;;;;27.27;22.03;;;;;;;-4.68;100.00;95838.13;5045963;28;20572;-68
2022/12/15 02:32:57;;;;;;;26.13;21.17;;;;;;;-4.73;100.00;95822.16;5045516;28;20487;-68
2022/12/15 02:35:29;;;;;;;29.57;21.83;;;;;;;-4.62;100.00;95823.91;5027766;28;20216;-68
2022/12/15 02:37:57;;;;;;;28.67;22.40;;;;;;;-4.61;100.00;95834.09;5045174;28;20713;-68
2022/12/15 02:40:24;;;;;;;30.23;22.17;;;;;;;-4.59;100.00;95860.66;5005542;28;20225;-68
2022/12/15 02:42:53;;;;;;;29.23;22.47;;;;;;;-4.60;100.00;95860.78;5039722;28;20701;-68
2022/12/15 02:45:27;;;;;;;30.67;23.10;;;;;;;-4.68;100.00;95858.81;5043936;28;20677;-69
2022/12/15 02:48:09;;;;;;;28.80;22.27;;;;;;;-4.63;100.00;95866.22;5043764;28;20223;-68
2022/12/15 02:50:57;;;;;;;28.10;21.27;;;;;;;-4.63;100.00;95861.03;5023739;28;21054;-69
2022/12/15 02:54:03;;;;;;;30.00;22.00;;;;;;;-4.62;100.00;95837.63;5039773;28;20406;-68
2022/12/15 02:56:36;;;;;;;28.97;22.33;;;;;;;-4.66;100.00;95839.66;4926478;28;20455;-68
2022/12/15 02:59:09;;;;;;;26.17;21.83;;;;;;;-4.63;100.00;95846.34;5022424;28;20619;-68
2022/12/15 03:01:41;;;;;;;29.63;23.27;;;;;;;-4.60;100.00;95843.50;5044149;28;20684;-68
2022/12/15 03:04:12;;;;;;;30.10;23.13;;;;;;;-4.68;100.00;95848.47;5038530;28;20246;-68
2022/12/15 03:06:40;;;;;;;31.03;22.60;;;;;;;-4.75;100.00;95855.88;5020261;28;20219;-68
2022/12/15 03:09:07;;;;;;;29.20;23.17;;;;;;;-4.73;100.00;95856.59;5045696;28;20230;-69
2022/12/15 03:11:36;;;;;;;30.03;22.60;;;;;;;-4.80;100.00;95871.75;4999812;28;21626;-68
2022/12/15 03:14:04;;;;;;;29.43;22.33;;;;;;;-4.62;100.00;95885.94;5044901;28;20227;-68
2022/12/15 03:16:31;;;;;;;27.33;21.37;;;;;;;-4.68;100.00;95879.50;5042665;28;20840;-69
2022/12/15 03:18:59;;;;;;;22.93;19.63;;;;;;;-4.68;100.00;95890.66;5042955;28;20845;-68
2022/12/15 03:21:28;;;;;;;26.10;19.57;;;;;;;-4.71;100.00;95890.06;5018052;28;20462;-68
2022/12/15 03:23:56;;;;;;;24.27;19.90;;;;;;;-4.73;100.00;95892.78;5045101;28;20231;-68
2022/12/15 03:26:23;;;;;;;24.03;19.27;;;;;;;-4.66;100.00;95886.19;5038684;28;20202;-68
2022/12/15 03:28:51;;;;;;;28.87;20.73;;;;;;;-4.61;100.00;95890.16;5002281;28;20497;-69
2022/12/15 03:31:19;;;;;;;25.20;20.40;;;;;;;-4.68;100.00;95884.66;5032689;28;21146;-69
2022/12/15 03:33:46;;;;;;;29.10;22.40;;;;;;;-4.70;100.00;95882.22;5048131;28;20574;-68
2022/12/15 03:36:14;;;;;;;30.17;23.40;;;;;;;-4.60;100.00;95876.31;5039692;28;20445;-68
2022/12/15 03:38:43;;;;;;;25.13;20.93;;;;;;;-4.54;100.00;95874.06;5023028;28;20440;-68
2022/12/15 03:41:11;;;;;;;28.83;21.03;;;;;;;-4.54;100.00;95868.88;5038119;28;20452;-68
2022/12/15 03:43:38;;;;;;;27.17;21.70;;;;;;;-4.51;100.00;95867.81;5001585;28;21084;-69
2022/12/15 03:46:06;;;;;;;26.77;21.17;;;;;;;-4.52;100.00;95884.25;5037968;28;20199;-69
2022/12/15 03:48:33;;;;;;;27.73;20.83;;;;;;;-4.56;100.00;95885.44;5033931;28;20484;-70
2022/12/15 03:51:01;;;;;;;26.93;22.23;;;;;;;-4.58;100.00;95882.16;5048304;28;20210;-69
2022/12/15 03:53:29;;;;;;;29.03;22.47;;;;;;;-4.62;100.00;95891.13;5017877;28;20717;-68
2022/12/15 03:55:58;;;;;;;27.23;21.17;;;;;;;-4.60;100.00;95897.78;5034800;28;20909;-68
2022/12/15 03:58:26;;;;;;;29.90;22.40;;;;;;;-4.58;100.00;95897.69;5016566;28;20233;-68
2022/12/15 04:00:53;;;;;;;27.83;21.67;;;;;;;-4.62;100.00;95906.63;4990625;28;20211;-69
2022/12/15 04:03:21;;;;;;;32.40;28.73;;;;;;;-4.47;100.00;95896.84;5040049;28;20811;-67
2022/12/15 04:05:49;;;;;;;28.27;24.10;;;;;;;-4.46;100.00;95885.56;5040180;28;20207;-66
2022/12/15 04:08:16;;;;;;;26.27;21.77;;;;;;;-4.45;100.00;95893.16;5038357;28;20495;-69
2022/12/15 04:10:44;;;;;;;28.63;22.57;;;;;;;-4.40;100.00;95909.13;5022422;28;20215;-69
2022/12/15 04:13:13;;;;;;;28.10;22.03;;;;;;;-4.39;100.00;95908.19;5017361;28;20875;-70
2022/12/15 04:15:41;;;;;;;32.30;22.33;;;;;;;-4.36;100.00;95915.72;4994659;28;20219;-69
2022/12/15 04:18:10;;;;;;;30.80;23.23;;;;;;;-4.37;100.00;95927.00;4984209;28;20458;-69
2022/12/15 04:20:38;;;;;;;29.13;22.13;;;;;;;-4.38;100.00;95917.59;5021396;28;20697;-70
2022/12/15 04:23:06;;;;;;;28.07;23.10;;;;;;;-4.48;100.00;95916.69;5035742;28;20345;-69
2022/12/15 05:32:05;;;;;;;30.97;21.57;;;;;;;-4.71;100.00;95967.59;5033436;28;20207;-68
2022/12/15 05:34:35;;;;;;;31.27;23.93;;;;;;;-4.90;100.00;95976.78;4975364;28;20219;-71
2022/12/15 05:37:04;;;;;;;30.73;23.20;;;;;;;-4.86;100.00;95998.03;5009225;28;20265;-70
2022/12/15 05:39:32;;;;;;;29.83;22.47;;;;;;;-4.90;100.00;96007.81;5044682;28;20199;-69
2022/12/15 05:42:00;;;;;;;31.83;23.23;;;;;;;-4.90;100.00;96018.13;5026699;28;20455;-71
2022/12/15 05:44:28;;;;;;;32.17;24.13;;;;;;;-4.79;100.00;96019.88;5023819;28;20847;-69
2022/12/15 05:46:56;;;;;;;29.23;22.33;;;;;;;-4.72;100.00;96000.41;5045659;28;20955;-71
2022/12/15 05:49:24;;;;;;;34.50;27.20;;;;;;;-4.78;100.00;95987.94;5038060;28;20230;-69
2022/12/15 05:51:53;;;;;;;43.50;30.93;;;;;;;-4.70;100.00;95995.94;5005607;28;20400;-70
2022/12/15 05:54:20;;;;;;;31.30;24.77;;;;;;;-4.66;100.00;95992.16;5043092;28;20478;-71
2022/12/15 05:56:48;;;;;;;32.97;24.73;;;;;;;-4.71;100.00;95980.53;5027467;28;20398;-71
2022/12/15 05:59:17;;;;;;;30.83;22.93;;;;;;;-4.90;100.00;95981.13;5046311;28;20206;-71
2022/12/15 06:01:45;;;;;;;28.63;21.90;;;;;;;-4.83;100.00;95992.63;5023353;28;20203;-71
2022/12/15 06:04:13;;;;;;;31.40;24.83;;;;;;;-4.83;100.00;96006.38;5043515;28;20477;-69
2022/12/15 06:06:41;;;;;;;34.20;24.60;;;;;;;-4.88;100.00;95999.91;4989871;28;20609;-70
2022/12/15 06:09:10;;;;;;;31.40;24.40;;;;;;;-4.79;100.00;96009.53;5047228;28;20996;-70
2022/12/15 06:11:38;;;;;;;31.33;23.03;;;;;;;-4.76;100.00;96017.06;5028365;28;20217;-69
2022/12/15 06:14:06;;;;;;;29.80;23.57;;;;;;;-4.93;100.00;95989.91;5048952;28;21180;-73
2022/12/15 06:16:34;;;;;;;33.27;24.80;;;;;;;-4.88;100.00;96012.84;5023558;28;20464;-70
2022/12/15 06:19:09;;;;;;;29.23;22.73;;;;;;;-4.86;100.00;96029.03;5047394;28;20249;-73
2022/12/15 06:21:36;;;;;;;27.87;22.63;;;;;;;-4.90;100.00;96049.16;4996926;28;20400;-71
2022/12/15 06:24:06;;;;;;;28.73;21.60;;;;;;;-4.87;100.00;96051.50;4973662;28;21748;-72
2022/12/15 06:26:36;;;;;;;29.27;21.23;;;;;;;-4.86;100.00;96042.81;5044462;28;20222;-69
2022/12/15 06:29:06;;;;;;;27.80;20.40;;;;;;;-4.76;100.00;96037.72;5042403;28;20291;-71
2022/12/15 06:31:35;;;;;;;30.17;23.00;;;;;;;-4.79;100.00;96040.56;5050987;28;20230;-70
2022/12/15 06:34:04;;;;;;;27.17;21.03;;;;;;;-4.77;100.00;96040.44;5042274;28;20481;-70
2022/12/15 06:36:31;;;;;;;27.57;21.37;;;;;;;-4.82;100.00;96051.97;5043337;28;20218;-72
2022/12/15 06:39:00;;;;;;;27.83;21.37;;;;;;;-4.74;100.00;96048.78;4997732;28;20380;-71
2022/12/15 06:41:29;;;;;;;30.33;22.67;;;;;;;-4.90;100.00;96053.47;5015922;28;20462;-71
2022/12/15 06:43:59;;;;;;;26.20;21.93;;;;;;;-4.87;100.00;96056.66;5049724;28;20226;-72
2022/12/15 06:46:29;;;;;;;27.07;22.50;;;;;;;-4.83;100.00;96065.81;5037287;28;20284;-69
2022/12/15 06:48:57;;;;;;;29.40;22.73;;;;;;;-4.72;100.00;96070.19;5032575;28;20305;-72
2022/12/15 06:51:28;;;;;;;27.63;20.97;;;;;;;-4.73;100.00;96067.72;5025986;28;20476;-70
2022/12/15 06:53:56;;;;;;;28.00;23.17;;;;;;;-4.75;100.00;96085.91;5042734;28;20485;-71
2022/12/15 06:56:26;;;;;;;28.57;22.43;;;;;;;-4.82;100.00;96076.97;4996487;28;20484;-70
2022/12/15 06:59:02;;;;;;;29.93;23.30;;;;;;;-4.78;100.00;96085.31;5043857;28;20229;-71
2022/12/15 07:01:31;;;;;;;29.87;22.30;;;;;;;-4.80;100.00;96068.19;5036198;28;20274;-69
2022/12/15 07:04:01;;;;;;;31.83;23.70;;;;;;;-4.74;100.00;96071.22;5028936;28;20657;-72
2022/12/15 07:06:33;;;;;;;30.40;24.00;;;;;;;-4.75;100.00;96078.16;5018476;28;20231;-71
2022/12/15 07:09:00;;;;;;;32.50;25.67;;;;;;;-4.68;100.00;96076.78;5045357;28;21140;-72
2022/12/15 07:11:28;;;;;;;31.17;23.80;;;;;;;-4.66;100.00;96074.88;4992305;28;20216;-71
2022/12/15 07:13:56;;;;;;;31.07;24.43;;;;;;;-4.72;100.00;96083.13;5044498;28;20270;-73
2022/12/15 07:16:25;;;;;;;33.47;23.60;;;;;;;-4.64;100.00;96079.94;5040103;28;20689;-70
2022/12/15 07:18:53;;;;;;;29.27;22.17;;;;;;;-4.52;100.00;96081.59;5047634;28;20964;-72
2022/12/15 07:21:20;;;;;;;26.17;22.60;;;;;;;-4.52;100.00;96070.41;5023405;28;20226;-69
2022/12/15 07:23:48;;;;;;;31.17;25.00;;;;;;;-4.44;100.00;96067.25;5025898;28;20253;-71
2022/12/15 07:26:22;;;;;;;34.67;24.40;;;;;;;-4.50;100.00;96068.53;4998417;28;20249;-70
2022/12/15 07:28:50;;;;;;;32.53;26.23;;;;;;;-4.49;100.00;96065.00;5045246;28;20199;-72
2022/12/15 07:31:17;;;;;;;29.83;23.37;;;;;;;-4.47;100.00;96063.13;5047230;28;20448;-70
2022/12/15 07:33:47;;;;;;;33.20;24.97;;;;;;;-4.43;100.00;96076.66;5044161;28;20538;-70
2022/12/15 07:36:15;;;;;;;33.20;25.73;;;;;;;-4.34;100.00;96082.88;5026115;28;20649;-70
2022/12/15 07:38:44;;;;;;;40.23;29.03;;;;;;;-4.28;100.00;96085.00;5023380;28;20503;-71
2022/12/15 07:41:16;;;;;;;31.00;24.03;;;;;;;-4.25;100.00;96089.94;4996919;28;20212;-70
2022/12/15 07:43:45;;;;;;;32.47;25.07;;;;;;;-4.22;100.00;96074.97;5043959;28;20308;-70
2022/12/15 07:46:13;;;;;;;35.80;27.10;;;;;;;-4.24;100.00;96078.63;5042665;28;20204;-69
2022/12/15 07:48:41;;;;;;;32.63;25.10;;;;;;;-4.26;100.00;96077.94;5045265;28;20203;-71
2022/12/15 07:51:10;;;;;;;30.73;24.17;;;;;;;-4.15;100.00;96064.97;5029751;28;20227;-70
2022/12/15 07:53:46;;;;;;;32.60;23.93;;;;;;;-4.16;100.00;96065.94;5023377;28;20983;-71
2022/12/15 07:56:14;;;;;;;35.73;28.40;;;;;;;-4.17;100.00;96071.22;5039758;28;20209;-70
2022/12/15 07:58:42;;;;;;;31.47;23.23;;;;;;;-4.15;100.00;96083.09;5011491;28;20480;-72
2022/12/15 08:01:11;;;;;;;31.33;22.73;;;;;;;-4.17;100.00;96095.31;5043631;28;20346;-71
2022/12/15 08:03:39;;;;;;;27.43;22.63;;;;;;;-4.25;100.00;96095.09;5039552;28;20281;-71
2022/12/15 08:06:10;;;;;;;31.93;21.70;;;;;;;-4.27;100.00;96102.97;5025547;28;20237;-69
2022/12/15 08:08:39;;;;;;;28.67;22.53;;;;;;;-4.23;100.00;96099.19;5044297;28;20599;-69
2022/12/15 08:11:07;;;;;;;27.43;21.43;;;;;;;-4.13;100.00;96099.31;5024113;28;20485;-71
2022/12/15 08:13:36;;;;;;;25.57;21.03;;;;;;;-4.10;100.00;96099.06;4993128;28;20468;-71
2022/12/15 08:16:23;;;;;;;27.70;20.73;;;;;;;-4.02;100.00;96115.75;5039816;28;20250;-69
2022/12/15 08:18:51;;;;;;;27.70;21.17;;;;;;;-3.90;100.00;96099.28;5045301;28;20203;-71
2022/12/15 08:21:20;;;;;;;26.60;19.43;;;;;;;-3.85;100.00;96110.09;5025445;28;20453;-69
2022/12/15 08:23:48;;;;;;;28.13;20.43;;;;;;;-3.80;100.00;96114.91;5044866;28;20234;-69
2022/12/15 08:26:17;;;;;;;25.70;21.10;;;;;;;-3.86;100.00;96118.81;5021183;28;20226;-69
2022/12/15 08:28:45;;;;;;;26.27;20.73;;;;;;;-3.84;100.00;96118.69;4998870;28;20439;-71
2022/12/15 08:31:15;;;;;;;29.27;22.23;;;;;;;-3.79;100.00;96122.56;4993315;28;22513;-69
2022/12/15 08:33:44;;;;;;;28.90;22.17;;;;;;;-3.85;100.00;96128.22;5043581;28;20833;-71
2022/12/15 08:36:13;;;;;;;27.63;21.30;;;;;;;-3.79;100.00;96135.50;5040173;28;20210;-69
2022/12/15 08:38:43;;;;;;;31.63;24.53;;;;;;;-3.91;100.00;96126.13;5037025;28;20217;-71
2022/12/15 08:41:13;;;;;;;27.37;22.63;;;;;;;-3.85;100.00;96128.22;5040763;28;20207;-69
2022/12/15 08:43:41;;;;;;;28.47;22.03;;;;;;;-3.74;100.00;96118.78;5029241;28;20504;-70
2022/12/15 08:46:15;;;;;;;29.83;22.17;;;;;;;-3.83;100.00;96126.34;4997388;28;21384;-70
2022/12/15 08:48:43;;;;;;;26.63;20.17;;;;;;;-3.59;100.00;96129.69;5044699;28;20198;-73
2022/12/15 08:51:11;;;;;;;24.17;20.77;;;;;;;-3.61;100.00;96116.06;5038003;28;20314;-70
2022/12/15 08:53:39;;;;;;;31.60;22.53;;;;;;;-3.68;100.00;96123.47;5046774;28;20543;-71
2022/12/15 08:56:11;;;;;;;28.23;20.93;;;;;;;-3.71;100.00;96123.72;5043828;28;20204;-69
2022/12/15 08:58:39;;;;;;;28.23;20.77;;;;;;;-3.49;100.00;96130.59;5023863;28;20218;-71
2022/12/15 09:01:09;;;;;;;27.30;21.13;;;;;;;-3.54;100.00;96150.88;5013792;28;20210;-69
2022/12/15 09:03:37;;;;;;;26.07;19.70;;;;;;;-3.46;100.00;96147.69;5041675;28;20222;-71
2022/12/15 09:06:06;;;;;;;24.83;20.17;;;;;;;-3.33;100.00;96147.53;5043482;28;20203;-69
2022/12/15 09:08:34;;;;;;;25.50;20.53;;;;;;;-3.05;100.00;96148.72;5048509;28;20548;-70
2022/12/15 09:11:04;;;;;;;26.77;22.10;;;;;;;-3.13;100.00;96148.50;5045124;28;20227;-68
2022/12/15 09:13:33;;;;;;;27.83;21.47;;;;;;;-3.06;100.00;96160.03;5021818;28;21183;-71
2022/12/15 09:16:04;;;;;;;32.13;22.80;;;;;;;-2.96;100.00;96163.50;5042992;28;20772;-69
2022/12/15 09:18:37;;;;;;;27.23;21.73;;;;;;;-2.95;100.00;96161.75;5003296;28;20218;-71
2022/12/15 09:21:06;;;;;;;25.93;22.70;;;;;;;-3.01;100.00;96172.63;5041235;28;20212;-69
2022/12/15 09:23:35;;;;;;;27.27;21.63;;;;;;;-2.89;100.00;96173.38;5042497;28;20226;-70
2022/12/15 09:26:05;;;;;;;26.33;22.03;;;;;;;-2.99;100.00;96168.94;5043158;28;20203;-67
2022/12/15 09:28:34;;;;;;;32.00;24.93;;;;;;;-2.84;100.00;96166.88;5045155;28;20198;-69
2022/12/15 09:31:02;;;;;;;27.53;22.73;;;;;;;-2.87;100.00;96169.72;5021924;28;20234;-69
2022/12/15 09:33:30;;;;;;;29.90;22.83;;;;;;;-2.65;100.00;96168.78;5004608;28;20253;-71
2022/12/15 09:35:59;;;;;;;31.40;24.17;;;;;;;-2.78;100.00;96163.78;5048921;28;20198;-69
2022/12/15 09:38:26;;;;;;;25.40;20.53;;;;;;;-2.62;100.00;96160.75;5045729;28;20453;-70
2022/12/15 09:40:54;;;;;;;30.60;24.00;;;;;;;-2.31;100.00;96149.56;5051238;28;20199;-70
2022/12/15 09:43:24;;;;;;;30.83;22.87;;;;;;;-2.38;100.00;96127.69;5048531;28;20629;-71
2022/12/15 09:46:20;;;;;;;25.77;21.67;;;;;;;-2.56;100.00;96128.31;5030546;28;20288;-69
2022/12/15 09:48:49;;;;;;;24.60;21.23;;;;;;;-2.20;100.00;96138.28;5008554;28;20207;-69
2022/12/15 09:51:18;;;;;;;26.90;22.17;;;;;;;-1.65;100.00;96144.91;5045904;28;20254;-71
2022/12/15 09:53:46;;;;;;;28.33;20.83;;;;;;;-1.48;100.00;96127.88;5046700;28;20230;-72
2022/12/15 09:56:28;;;;;;;27.33;22.07;;;;;;;-1.14;100.00;96126.66;5050115;28;20234;-72
2022/12/15 09:59:00;;;;;;;24.23;21.57;;;;;;;-1.25;100.00;96127.59;5046422;28;20484;-69
2022/12/15 10:01:34;;;;;;;27.60;21.57;;;;;;;-1.78;100.00;96116.59;5029025;28;20644;-70
2022/12/15 10:04:06;;;;;;;27.50;21.93;;;;;;;-1.92;100.00;96115.19;5006071;28;20325;-69
2022/12/15 10:06:38;;;;;;;29.10;22.27;;;;;;;-1.61;100.00;96118.53;5043297;28;20202;-71
2022/12/15 10:09:14;;;;;;;26.43;21.27;;;;;;;-1.79;100.00;96107.97;5050751;28;20408;-69
2022/12/15 10:11:47;;;;;;;25.23;21.40;;;;;;;-1.67;100.00;96098.28;5051960;28;20309;-70
2022/12/15 10:14:24;;;;;;;24.60;20.97;;;;;;;-1.68;100.00;96088.03;5046223;28;20249;-72
2022/12/15 10:17:01;;;;;;;26.57;20.83;;;;;;;-2.15;100.00;96102.38;5029945;28;20257;-72
2022/12/15 10:19:34;;;;;;;27.70;21.97;;;;;;;-2.09;100.00;96101.06;5008846;28;20225;-70
2022/12/15 10:22:02;;;;;;;28.73;22.20;;;;;;;-1.95;100.00;96095.47;5045002;28;20561;-74
2022/12/15 10:24:32;;;;;;;27.97;21.73;;;;;;;-1.80;100.00;96098.53;5046092;28;20230;-71
2022/12/15 10:27:40;;;;;;;26.17;20.93;;;;;;;-2.00;100.00;96094.25;5046898;28;20206;-71
2022/12/15 10:30:09;;;;;;;29.10;21.47;;;;;;;-2.43;100.00;96085.75;5048298;28;20713;-69
2022/12/15 10:32:48;;;;;;;27.80;21.03;;;;;;;-2.39;100.00;96105.28;5031961;28;20293;-70
2022/12/15 10:35:22;;;;;;;27.40;22.73;;;;;;;-2.22;100.00;96096.09;5006031;28;20211;-71
2022/12/15 10:37:50;;;;;;;27.30;21.93;;;;;;;-2.26;100.00;96098.13;5046713;28;20799;-72
2022/12/15 10:40:19;;;;;;;28.43;20.93;;;;;;;-2.26;100.00;96097.31;4998761;28;20219;-71
2022/12/15 10:42:49;;;;;;;25.77;21.30;;;;;;;-2.30;100.00;96101.91;5026052;28;20713;-70
2022/12/15 10:45:38;;;;;;;27.67;20.90;;;;;;;-2.02;100.00;96099.56;5049952;28;20207;-70
2022/12/15 10:48:18;;;;;;;28.73;23.50;;;;;;;-1.66;100.00;96089.53;5025220;28;20618;-69
2022/12/15 10:50:46;;;;;;;28.90;23.73;;;;;;;-1.58;100.00;96080.25;5048187;28;20202;-69
2022/12/15 10:53:34;;;;;;;27.43;21.83;;;;;;;-1.51;100.00;96078.78;5046266;28;20222;-71
2022/12/15 10:56:02;;;;;;;28.30;25.20;;;;;;;-1.41;100.00;96068.34;5025147;28;20416;-72
2022/12/15 10:58:29;;;;;;;29.60;21.97;;;;;;;-1.54;100.00;96061.66;5048286;28;20211;-72
2022/12/15 11:01:06;;;;;;;28.87;22.00;;;;;;;-1.64;100.00;96056.44;5042052;28;20698;-70
2022/12/15 11:03:38;;;;;;;26.33;21.13;;;;;;;-1.43;100.00;96052.09;5041207;28;20315;-70
2022/12/15 11:06:13;;;;;;;25.00;20.93;;;;;;;-1.38;100.00;96047.28;5033907;28;20662;-69
2022/12/15 11:08:41;;;;;;;27.60;22.17;;;;;;;-1.49;100.00;96040.47;5046019;28;20203;-70
2022/12/15 11:14:14;;;;;;;24.03;21.47;;;;;;;-1.55;100.00;96044.44;5048485;28;20317;-69
2022/12/15 11:16:49;;;;;;;26.87;21.63;;;;;;;-1.86;100.00;96041.94;5042129;28;20204;-70
2022/12/15 11:19:28;;;;;;;31.33;23.33;;;;;;;-1.75;100.00;96038.41;5046923;28;20265;-71
2022/12/15 11:22:01;;;;;;;28.93;22.30;;;;;;;-1.68;100.00;96044.69;5025198;28;20420;-72
2022/12/15 11:24:34;;;;;;;28.33;23.47;;;;;;;-1.74;100.00;96040.03;5047323;28;20488;-72
2022/12/15 11:27:10;;;;;;;32.27;23.30;;;;;;;-1.94;100.00;96041.78;5021302;28;20585;-72
2022/12/15 11:29:46;;;;;;;28.67;23.37;;;;;;;-2.18;100.00;96040.38;5049850;28;20206;-70
2022/12/15 11:32:18;;;;;;;28.77;22.87;;;;;;;-2.09;100.00;96060.31;5042021;28;20220;-73
2022/12/15 11:34:47;;;;;;;30.80;24.43;;;;;;;-2.21;100.00;96061.41;5038160;28;20674;-70
2022/12/15 11:37:47;;;;;;;30.43;24.27;;;;;;;-2.25;100.00;96062.63;5027035;28;20226;-71
2022/12/15 11:40:38;;;;;;;32.23;25.93;;;;;;;-2.18;100.00;96055.94;4995225;28;20264;-69
2022/12/15 11:43:20;;;;;;;31.27;25.53;;;;;;;-2.06;100.00;96064.44;5039264;28;20512;-70
2022/12/15 11:46:01;;;;;;;31.20;24.53;;;;;;;-2.20;100.00;96060.44;5024227;28;20506;-70
2022/12/15 11:48:35;;;;;;;29.70;22.93;;;;;;;-1.99;100.00;96056.97;5041463;28;20911;-72
2022/12/15 11:51:06;;;;;;;27.30;24.03;;;;;;;-1.85;100.00;96056.56;5044549;28;20203;-69
2022/12/15 11:53:45;;;;;;;33.17;24.23;;;;;;;-1.64;100.00;96046.06;5025806;28;20226;-69
2022/12/15 11:56:24;;;;;;;32.67;25.30;;;;;;;-1.68;100.00;96049.88;5004730;28;20627;-70
2022/12/15 11:59:16;;;;;;;31.23;24.87;;;;;;;-2.06;100.00;96057.50;5043268;28;20433;-71
2022/12/15 12:01:56;;;;;;;30.47;24.87;;;;;;;-2.13;100.00;96051.16;5043899;28;20203;-72
2022/12/15 12:04:38;;;;;;;31.63;23.87;;;;;;;-2.07;100.00;96055.84;5040084;28;20514;-73
2022/12/15 12:07:14;;;;;;;33.77;25.47;;;;;;;-2.08;100.00;96049.03;5022256;28;20331;-71
2022/12/15 12:09:46;;;;;;;30.93;25.70;;;;;;;-1.79;100.00;96053.44;5045483;28;20207;-72
2022/12/15 12:12:20;;;;;;;29.03;24.33;;;;;;;-1.69;100.00;96037.84;5001839;28;20842;-70
2022/12/15 12:14:57;;;;;;;27.23;22.60;;;;;;;-1.70;100.00;96031.03;5039446;28;20800;-71
2022/12/15 12:17:33;;;;;;;30.37;24.07;;;;;;;-1.72;100.00;96024.31;5036106;28;20511;-72
2022/12/15 12:20:04;;;;;;;28.13;24.40;;;;;;;-1.81;100.00;96018.19;5043376;28;20333;-72
2022/12/15 12:22:42;;;;;;;30.70;24.67;;;;;;;-1.83;100.00;96018.28;5036075;28;20222;-70
2022/12/15 12:25:13;;;;;;;32.10;25.63;;;;;;;-1.76;100.00;96016.00;5038494;28;20326;-72
2022/12/15 12:27:45;;;;;;;33.43;26.27;;;;;;;-1.75;100.00;96010.63;5008337;28;20211;-70
2022/12/15 12:30:39;;;;;;;30.60;24.30;;;;;;;-1.76;100.00;96014.19;5039896;28;20210;-71
2022/12/15 12:33:12;;;;;;;28.50;23.87;;;;;;;-1.63;100.00;96023.53;5035055;28;20329;-70
2022/12/15 12:35:45;;;;;;;26.43;23.03;;;;;;;-1.62;100.00;96028.56;5047420;28;20207;-69
2022/12/15 12:38:19;;;;;;;26.93;23.43;;;;;;;-1.65;100.00;96028.84;5038542;28;20211;-69
2022/12/15 12:40:53;;;;;;;31.00;25.13;;;;;;;-1.56;100.00;96028.97;5026397;28;20232;-70
2022/12/15 12:43:32;;;;;;;35.47;25.97;;;;;;;-1.59;100.00;96030.06;4986364;28;20230;-70
2022/12/15 12:46:05;;;;;;;28.63;23.30;;;;;;;-1.63;100.00;96029.53;5001432;28;20653;-71
2022/12/15 12:48:36;;;;;;;30.70;24.23;;;;;;;-1.67;100.00;96029.94;5036785;28;20741;-71
2022/12/15 12:51:13;;;;;;;30.30;23.27;;;;;;;-1.92;100.00;96029.50;5037822;28;20671;-70
2022/12/15 12:53:42;;;;;;;34.27;25.33;;;;;;;-2.04;100.00;96024.44;5029446;28;20721;-72
2022/12/15 12:56:29;;;;;;;31.23;25.30;;;;;;;-1.99;100.00;96028.41;5039738;28;20207;-72
2022/12/15 12:58:56;;;;;;;33.00;25.97;;;;;;;-2.17;100.00;96026.44;5039278;28;20210;-70
2022/12/15 13:01:27;;;;;;;28.90;24.40;;;;;;;-2.04;100.00;96023.59;4997606;28;20219;-71
2022/12/15 13:04:10;;;;;;;31.53;25.47;;;;;;;-1.96;100.00;96022.94;5040926;28;20545;-70
2022/12/15 13:07:03;;;;;;;31.87;26.60;;;;;;;-1.96;100.00;96028.13;5037552;28;20574;-73
2022/12/15 13:09:40;;;;;;;35.53;29.13;;;;;;;-1.98;100.00;96022.25;5027479;28;20317;-72
2022/12/15 13:12:33;;;;;;;32.83;25.93;;;;;;;-1.95;100.00;96009.81;5036789;28;20227;-72
2022/12/15 13:15:29;;;;;;;32.03;25.87;;;;;;;-1.86;100.00;96004.78;5039054;28;20525;-71
2022/12/15 13:18:00;;;;;;;30.43;25.13;;;;;;;-1.73;100.00;95996.69;4996873;28;20230;-70
2022/12/15 13:20:29;;;;;;;34.53;24.90;;;;;;;-1.73;100.00;95996.69;5041426;28;20214;-72
2022/12/15 13:23:30;;;;;;;30.03;26.07;;;;;;;-1.68;100.00;95986.75;5026386;28;20227;-71
2022/12/15 13:26:11;;;;;;;30.87;26.17;;;;;;;-1.80;100.00;95984.25;5039257;28;20298;-71
2022/12/15 13:28:45;;;;;;;33.43;27.23;;;;;;;-2.00;100.00;95980.03;5044229;28;20202;-71
2022/12/15 13:31:26;;;;;;;32.77;28.47;;;;;;;-2.05;100.00;95983.03;5036213;28;20301;-71
2022/12/15 13:33:58;;;;;;;35.50;25.27;;;;;;;-2.24;100.00;95983.81;4997685;28;20577;-71
2022/12/15 13:36:45;;;;;;;33.00;26.23;;;;;;;-2.35;100.00;95982.97;5036528;28;20206;-70
2022/12/15 13:39:35;;;;;;;34.13;26.20;;;;;;;-2.29;100.00;95986.78;5026938;28;20765;-72
2022/12/15 13:42:28;;;;;;;34.77;26.57;;;;;;;-2.33;100.00;95978.47;5042114;28;20689;-70
2022/12/15 13:45:34;;;;;;;34.20;24.00;;;;;;;-2.28;100.00;95969.47;5042135;28;20396;-70
2022/12/15 13:48:11;;;;;;;29.37;24.07;;;;;;;-2.37;100.00;95963.28;5042626;28;20781;-70
2022/12/15 13:50:45;;;;;;;27.77;24.63;;;;;;;-2.47;100.00;95953.72;5002257;28;20344;-71
2022/12/15 13:53:20;;;;;;;32.93;26.40;;;;;;;-2.58;100.00;95951.25;5038146;28;20222;-69